createdAt,value
2019-06-01T00:00:20.327Z,65.06
2019-06-01T00:02:56.451Z,65.68
2019-06-01T00:05:25.191Z,65.58
2019-06-01T00:07:56.024Z,65.95
2019-06-01T00:10:26.710Z,65.55
2019-06-01T00:12:57.719Z,66.05
2019-06-01T00:15:28.566Z,66.17
2019-06-01T00:17:59.356Z,66.67
2019-06-01T00:20:30.284Z,66.86
2019-06-01T00:23:01.106Z,68.01
2019-06-01T00:25:31.845Z,67.36
2019-06-01T00:28:02.580Z,67.64
2019-06-01T00:30:33.417Z,66.73
2019-06-01T00:33:04.293Z,66.81
2019-06-01T00:35:35.212Z,66.86
2019-06-01T00:38:06.006Z,66.84
2019-06-01T00:40:37.065Z,66.73
2019-06-01T00:43:07.701Z,67.16
2019-06-01T00:45:38.571Z,66.67
2019-06-01T00:48:09.343Z,66.23
2019-06-01T00:50:39.840Z,66.44
2019-06-01T00:53:10.412Z,66.61
2019-06-01T00:55:40.910Z,67.21
2019-06-01T00:58:11.417Z,67.05
2019-06-01T01:00:44.164Z,67.24
2019-06-01T01:03:14.202Z,67.67
2019-06-01T01:05:44.739Z,67.84
2019-06-01T01:08:15.329Z,67.08
2019-06-01T01:10:46.842Z,67.58
2019-06-01T01:13:20.063Z,66.84
2019-06-01T01:15:51.392Z,67.10
2019-06-01T01:18:22.168Z,67.61
2019-06-01T01:20:54.165Z,67.68
2019-06-01T01:23:25.033Z,67.46
2019-06-01T01:25:56.645Z,67.42
2019-06-01T01:28:27.436Z,67.28
2019-06-01T01:31:12.472Z,67.75
2019-06-01T01:33:31.771Z,68.72
2019-06-01T01:36:02.572Z,68.36
2019-06-01T01:38:33.309Z,67.87
2019-06-01T01:41:04.273Z,67.80
2019-06-01T01:43:35.037Z,67.75
2019-06-01T01:46:06.283Z,67.60
2019-06-01T01:48:37.134Z,67.26
2019-06-01T01:51:08.276Z,67.62
2019-06-01T01:53:39.187Z,67.56
2019-06-01T01:56:10.072Z,67.66
2019-06-01T01:58:40.878Z,67.58
2019-06-01T02:01:22.244Z,67.71
2019-06-01T02:03:44.130Z,67.51
2019-06-01T02:06:14.889Z,67.44
2019-06-01T02:08:46.653Z,67.30
2019-06-01T02:11:17.452Z,67.32
2019-06-01T02:13:48.469Z,67.25
2019-06-01T02:16:19.353Z,67.10
2019-06-01T02:18:50.121Z,68.01
2019-06-01T02:21:20.998Z,68.03
2019-06-01T02:23:52.931Z,68.49
2019-06-01T02:26:23.879Z,69.68
2019-06-01T02:28:55.688Z,69.16
2019-06-01T02:31:40.935Z,68.67
2019-06-01T02:33:59.256Z,69.18
2019-06-01T02:36:30.581Z,68.81
2019-06-01T02:39:02.793Z,68.40
2019-06-01T02:41:33.746Z,68.55
2019-06-01T02:44:06.386Z,68.50
2019-06-01T02:46:36.754Z,68.73
2019-06-01T02:49:07.327Z,68.65
2019-06-01T02:51:37.836Z,68.57
2019-06-01T02:54:08.409Z,68.39
2019-06-01T02:56:38.927Z,68.32
2019-06-01T02:59:09.784Z,68.60
2019-06-01T03:01:55.974Z,68.30
2019-06-01T03:04:14.393Z,68.17
2019-06-01T03:06:47.412Z,68.54
2019-06-01T03:09:20.983Z,69.10
2019-06-01T03:11:54.324Z,68.80
2019-06-01T03:14:27.850Z,68.56
2019-06-01T03:17:01.951Z,68.50
2019-06-01T03:19:34.280Z,68.39
2019-06-01T03:22:08.492Z,68.31
2019-06-01T03:24:39.318Z,68.27
2019-06-01T03:27:13.120Z,68.97
2019-06-01T03:29:47.237Z,69.11
2019-06-01T03:32:34.501Z,68.92
2019-06-01T03:34:50.646Z,69.03
2019-06-01T03:37:21.688Z,68.90
2019-06-01T03:39:52.521Z,68.81
2019-06-01T03:42:23.736Z,68.60
2019-06-01T03:44:55.023Z,68.75
2019-06-01T03:47:25.921Z,68.88
2019-06-01T03:49:56.868Z,69.09
2019-06-01T03:52:28.723Z,68.49
2019-06-01T03:54:59.588Z,68.86
2019-06-01T03:57:30.288Z,69.07
2019-06-01T04:00:01.110Z,68.89
2019-06-01T04:02:33.717Z,68.83
2019-06-01T04:05:05.609Z,69.15
2019-06-01T04:07:38.932Z,69.07
2019-06-01T04:10:10.004Z,68.80
2019-06-01T04:12:41.787Z,68.79
2019-06-01T04:15:16.213Z,69.05
2019-06-01T04:17:44.674Z,68.80
2019-06-01T04:20:15.753Z,68.08
2019-06-01T04:22:46.252Z,68.19
2019-06-01T04:25:16.720Z,68.37
2019-06-01T04:27:47.236Z,68.14
2019-06-01T04:30:19.301Z,68.57
2019-06-01T04:32:50.631Z,69.00
2019-06-01T04:35:22.399Z,69.03
2019-06-01T04:37:53.191Z,69.01
2019-06-01T04:40:23.970Z,69.19
2019-06-01T04:42:54.861Z,68.95
2019-06-01T04:45:25.774Z,69.19
2019-06-01T04:47:56.608Z,69.07
2019-06-01T04:50:27.812Z,68.98
2019-06-01T04:52:58.480Z,69.15
2019-06-01T04:55:29.235Z,68.90
2019-06-01T04:58:00.118Z,68.91
2019-06-01T05:00:30.847Z,68.70
2019-06-01T05:03:05.270Z,68.53
2019-06-01T05:05:33.935Z,68.83
2019-06-01T05:08:05.197Z,68.98
2019-06-01T05:10:36.077Z,68.21
2019-06-01T05:13:07.348Z,67.80
2019-06-01T05:15:38.285Z,67.45
2019-06-01T05:18:10.033Z,67.18
2019-06-01T05:20:40.865Z,66.68
2019-06-01T05:23:12.665Z,68.05
2019-06-01T05:25:43.456Z,66.09
2019-06-01T05:28:15.307Z,66.77
2019-06-01T05:30:46.460Z,66.31
2019-06-01T05:33:31.074Z,66.30
2019-06-01T05:35:49.952Z,66.71
2019-06-01T05:38:20.415Z,66.76
2019-06-01T05:40:51.830Z,65.89
2019-06-01T05:43:22.330Z,65.06
2019-06-01T05:45:52.867Z,63.97
2019-06-01T05:48:27.357Z,63.29
2019-06-01T05:50:55.684Z,63.34
2019-06-01T05:53:26.388Z,63.56
2019-06-01T05:55:56.865Z,62.86
2019-06-01T05:58:29.284Z,62.18
2019-06-01T06:00:59.836Z,62.13
2019-06-01T06:03:40.125Z,61.11
2019-06-01T06:06:03.251Z,61.62
2019-06-01T06:08:34.026Z,62.22
2019-06-01T06:11:04.841Z,61.33
2019-06-01T06:13:35.717Z,61.02
2019-06-01T06:16:06.467Z,60.67
2019-06-01T06:18:37.218Z,60.28
2019-06-01T06:21:07.848Z,61.02
2019-06-01T06:23:39.648Z,61.36
2019-06-01T06:26:10.487Z,61.07
2019-06-01T06:28:41.710Z,60.14
2019-06-01T06:31:12.964Z,59.64
2019-06-01T06:33:55.951Z,59.93
2019-06-01T06:36:16.373Z,60.17
2019-06-01T06:38:48.420Z,59.32
2019-06-01T06:41:20.267Z,59.81
2019-06-01T06:43:51.012Z,59.90
2019-06-01T06:46:22.816Z,59.44
2019-06-01T06:48:54.524Z,59.70
2019-06-01T06:51:25.566Z,60.60
2019-06-01T06:53:56.166Z,59.90
2019-06-01T06:56:26.637Z,59.31
2019-06-01T06:58:57.168Z,58.95
2019-06-01T07:01:27.697Z,58.76
2019-06-01T07:04:11.577Z,58.59
2019-06-01T07:06:30.537Z,59.39
2019-06-01T07:09:01.021Z,59.87
2019-06-01T07:11:32.568Z,59.37
2019-06-01T07:14:03.445Z,58.90
2019-06-01T07:16:34.110Z,57.84
2019-06-01T07:19:04.870Z,57.38
2019-06-01T07:21:35.619Z,56.60
2019-06-01T07:24:06.421Z,57.17
2019-06-01T07:26:37.047Z,55.49
2019-06-01T07:29:07.849Z,56.34
2019-06-01T07:31:38.610Z,55.11
2019-06-01T07:34:09.376Z,56.07
2019-06-01T07:36:40.420Z,53.67
2019-06-01T07:39:11.278Z,54.10
2019-06-01T07:41:42.202Z,53.08
2019-06-01T07:44:13.685Z,53.53
2019-06-01T07:46:44.374Z,53.50
2019-06-01T07:49:15.254Z,54.04
2019-06-01T07:51:47.211Z,53.64
2019-06-01T07:54:17.913Z,54.71
2019-06-01T07:56:48.782Z,53.36
2019-06-01T07:59:19.833Z,52.48
2019-06-01T08:01:50.736Z,54.69
2019-06-01T08:04:22.914Z,53.70
2019-06-01T08:06:54.159Z,52.94
2019-06-01T08:09:26.563Z,51.23
2019-06-01T08:11:57.161Z,51.84
2019-06-01T08:14:28.624Z,52.23
2019-06-01T08:16:59.151Z,52.47
2019-06-01T08:19:30.102Z,52.04
2019-06-01T08:22:00.608Z,52.44
2019-06-01T08:24:32.337Z,51.97
2019-06-01T08:27:02.909Z,52.90
2019-06-01T08:29:33.536Z,53.35
2019-06-01T08:32:04.016Z,52.36
2019-06-01T08:34:34.521Z,52.89
2019-06-01T08:37:05.491Z,50.32
2019-06-01T08:39:36.274Z,50.41
2019-06-01T08:42:07.078Z,51.30
2019-06-01T08:44:38.019Z,51.59
2019-06-01T08:47:08.849Z,51.53
2019-06-01T08:49:39.743Z,49.08
2019-06-01T08:52:10.521Z,47.58
2019-06-01T08:54:41.325Z,46.44
2019-06-01T08:57:12.193Z,47.17
2019-06-01T08:59:43.045Z,48.87
2019-06-01T09:02:13.974Z,47.80
2019-06-01T09:04:44.775Z,45.67
2019-06-01T09:07:15.680Z,47.27
2019-06-01T09:09:47.301Z,46.50
2019-06-01T09:12:18.076Z,46.47
2019-06-01T09:14:49.997Z,46.62
2019-06-01T09:17:21.061Z,46.94
2019-06-01T09:19:51.983Z,46.80
2019-06-01T09:22:22.843Z,46.39
2019-06-01T09:24:53.729Z,47.45
2019-06-01T09:27:25.568Z,47.10
2019-06-01T09:29:56.083Z,46.14
2019-06-01T09:32:27.837Z,46.04
2019-06-01T09:34:58.549Z,45.65
2019-06-01T09:37:29.025Z,45.63
2019-06-01T09:39:59.504Z,45.14
2019-06-01T09:42:30.767Z,45.16
2019-06-01T09:45:01.311Z,43.46
2019-06-01T09:47:31.821Z,41.63
2019-06-01T09:50:02.694Z,42.63
2019-06-01T09:52:33.549Z,42.90
2019-06-01T09:55:04.374Z,43.77
2019-06-01T09:57:36.105Z,43.39
2019-06-01T10:00:08.264Z,40.01
2019-06-01T10:02:39.089Z,40.99
2019-06-01T10:05:09.868Z,40.42
2019-06-01T10:07:41.556Z,39.43
2019-06-01T10:10:12.382Z,38.27
2019-06-01T10:12:43.268Z,39.42
2019-06-01T10:15:14.654Z,40.47
2019-06-01T10:17:45.380Z,41.10
2019-06-01T10:20:16.653Z,39.89
2019-06-01T10:22:47.478Z,39.35
2019-06-01T10:25:18.293Z,38.55
2019-06-01T10:27:49.091Z,37.57
2019-06-01T10:30:20.261Z,36.02
2019-06-01T10:32:51.061Z,37.06
2019-06-01T10:35:21.772Z,37.42
2019-06-01T10:37:52.614Z,36.71
2019-06-01T10:40:23.501Z,37.71
2019-06-01T10:42:54.246Z,36.89
2019-06-01T10:45:25.129Z,37.28
2019-06-01T10:47:55.869Z,38.34
2019-06-01T10:50:26.734Z,38.66
2019-06-01T10:52:57.242Z,37.72
2019-06-01T10:55:27.927Z,37.45
2019-06-01T10:57:58.397Z,37.64
2019-06-01T11:00:39.664Z,37.38
2019-06-01T11:03:01.392Z,37.42
2019-06-01T11:05:32.547Z,36.05
2019-06-01T11:08:03.520Z,35.39
2019-06-01T11:10:34.918Z,36.85
2019-06-01T11:13:06.844Z,34.92
2019-06-01T11:15:39.038Z,35.91
2019-06-01T11:18:09.948Z,37.66
2019-06-01T11:20:41.506Z,36.40
2019-06-01T11:23:12.565Z,37.21
2019-06-01T11:25:43.756Z,38.18
2019-06-01T11:28:14.663Z,37.29
2019-06-01T11:30:45.566Z,36.03
2019-06-01T11:33:16.383Z,36.75
2019-06-01T11:35:47.271Z,35.43
2019-06-01T11:38:18.068Z,35.20
2019-06-01T11:40:48.844Z,35.24
2019-06-01T11:43:19.656Z,36.64
2019-06-01T11:45:50.540Z,35.99
2019-06-01T11:48:21.415Z,37.35
2019-06-01T11:50:52.324Z,37.39
2019-06-01T11:53:23.064Z,37.55
2019-06-01T11:55:53.867Z,35.71
2019-06-01T11:58:24.659Z,34.40
2019-06-01T12:00:55.528Z,35.55
2019-06-01T12:03:26.295Z,35.71
2019-06-01T12:05:56.805Z,39.60
2019-06-01T12:08:27.340Z,36.77
2019-06-01T12:10:58.173Z,37.98
2019-06-01T12:13:29.057Z,37.66
2019-06-01T12:15:59.617Z,39.44
2019-06-01T12:18:30.097Z,35.32
2019-06-01T12:21:00.723Z,36.72
2019-06-01T12:23:31.635Z,36.17
2019-06-01T12:26:02.388Z,36.55
2019-06-01T12:28:33.491Z,34.81
2019-06-01T12:31:04.207Z,38.22
2019-06-01T12:33:35.081Z,35.00
2019-06-01T12:36:06.626Z,34.84
2019-06-01T12:38:53.445Z,35.61
2019-06-01T12:41:24.885Z,36.42
2019-06-01T12:44:14.911Z,34.52
2019-06-01T12:46:46.948Z,33.41
2019-06-01T12:49:18.076Z,34.97
2019-06-01T12:51:49.444Z,34.71
2019-06-01T12:54:20.268Z,33.69
2019-06-01T12:56:51.135Z,34.05
2019-06-01T12:59:22.000Z,34.69
2019-06-01T13:01:52.869Z,33.70
2019-06-01T13:04:23.715Z,33.83
2019-06-01T13:06:54.798Z,35.83
2019-06-01T13:09:26.508Z,36.18
2019-06-01T13:11:57.577Z,33.62
2019-06-01T13:14:28.360Z,34.34
2019-06-01T13:17:07.295Z,34.03
2019-06-01T13:19:32.820Z,34.55
2019-06-01T13:22:03.375Z,35.43
2019-06-01T13:24:33.957Z,33.88
2019-06-01T13:27:04.468Z,32.83
2019-06-01T13:29:34.932Z,33.54
2019-06-01T13:32:05.520Z,36.65
2019-06-01T13:34:36.126Z,32.84
2019-06-01T13:37:06.600Z,33.25
2019-06-01T13:39:37.081Z,33.20
2019-06-01T13:42:08.034Z,34.43
2019-06-01T13:44:38.804Z,33.98
2019-06-01T13:47:09.564Z,30.74
2019-06-01T13:49:40.258Z,31.79
2019-06-01T13:52:11.042Z,28.15
2019-06-01T13:54:41.931Z,29.80
2019-06-01T13:57:12.716Z,31.15
2019-06-01T13:59:44.642Z,30.94
2019-06-01T14:02:15.525Z,29.86
2019-06-01T14:04:47.552Z,29.83
2019-06-01T14:07:18.419Z,30.40
2019-06-01T14:09:49.308Z,29.49
2019-06-01T14:12:20.076Z,29.00
2019-06-01T14:14:51.525Z,28.70
2019-06-01T14:17:22.367Z,29.21
2019-06-01T14:19:53.834Z,31.47
2019-06-01T14:22:25.660Z,28.72
2019-06-01T14:25:10.382Z,30.07
2019-06-01T14:27:28.649Z,30.63
2019-06-01T14:29:59.145Z,26.86
2019-06-01T14:32:29.783Z,26.99
2019-06-01T14:35:00.282Z,28.67
2019-06-01T14:37:30.749Z,28.04
2019-06-01T14:40:01.256Z,28.30
2019-06-01T14:42:31.753Z,26.42
2019-06-01T14:45:02.260Z,28.83
2019-06-01T14:47:32.846Z,26.73
2019-06-01T14:50:03.616Z,26.11
2019-06-01T14:52:35.274Z,26.17
2019-06-01T14:55:06.771Z,27.72
2019-06-01T14:57:37.276Z,27.79
2019-06-01T15:00:08.706Z,29.82
2019-06-01T15:02:39.296Z,26.55
2019-06-01T15:05:10.696Z,28.03
2019-06-01T15:07:41.413Z,27.84
2019-06-01T15:10:14.478Z,28.18
2019-06-01T15:12:45.274Z,27.96
2019-06-01T15:15:16.213Z,27.18
2019-06-01T15:17:46.998Z,26.75
2019-06-01T15:20:18.097Z,26.94
2019-06-01T15:22:50.006Z,28.25
2019-06-01T15:25:20.884Z,26.32
2019-06-01T15:27:52.638Z,28.39
2019-06-01T15:30:24.047Z,27.12
2019-06-01T15:32:56.101Z,25.77
2019-06-01T15:35:28.082Z,26.42
2019-06-01T15:38:02.066Z,25.94
2019-06-01T15:40:31.296Z,25.61
2019-06-01T15:43:02.016Z,24.83
2019-06-01T15:45:32.804Z,25.42
2019-06-01T15:48:03.564Z,26.11
2019-06-01T15:50:34.351Z,25.14
2019-06-01T15:53:05.221Z,24.26
2019-06-01T15:55:36.033Z,25.78
2019-06-01T15:58:06.912Z,25.67
2019-06-01T16:00:37.531Z,25.14
2019-06-01T16:03:07.984Z,25.58
2019-06-01T16:05:38.494Z,27.45
2019-06-01T16:08:08.983Z,25.88
2019-06-01T16:10:39.479Z,27.15
2019-06-01T16:13:09.944Z,24.95
2019-06-01T16:15:40.696Z,25.72
2019-06-01T16:18:11.493Z,24.70
2019-06-01T16:20:42.216Z,24.89
2019-06-01T16:23:14.519Z,25.96
2019-06-01T16:25:52.303Z,24.93
2019-06-01T16:28:17.590Z,24.42
2019-06-01T16:30:48.369Z,25.89
2019-06-01T16:33:20.078Z,25.85
2019-06-01T16:35:51.149Z,25.69
2019-06-01T16:38:21.856Z,25.39
2019-06-01T16:40:52.708Z,25.71
2019-06-01T16:43:23.566Z,25.12
2019-06-01T16:45:55.591Z,26.00
2019-06-01T16:48:26.434Z,26.41
2019-06-01T16:50:57.640Z,25.71
2019-06-01T16:53:29.358Z,26.33
2019-06-01T16:56:00.074Z,26.63
2019-06-01T16:58:30.991Z,25.41
2019-06-01T17:01:02.650Z,26.54
2019-06-01T17:03:33.675Z,24.72
2019-06-01T17:06:04.840Z,24.28
2019-06-01T17:08:35.852Z,24.43
2019-06-01T17:11:06.930Z,26.80
2019-06-01T17:13:37.758Z,26.01
2019-06-01T17:16:08.424Z,27.22
2019-06-01T17:18:39.126Z,27.58
2019-06-01T17:21:09.716Z,27.67
2019-06-01T17:23:40.184Z,27.83
2019-06-01T17:26:10.646Z,28.89
2019-06-01T17:28:41.183Z,30.02
2019-06-01T17:31:12.119Z,30.40
2019-06-01T17:33:42.714Z,31.71
2019-06-01T17:36:13.488Z,34.07
2019-06-01T17:38:44.313Z,35.18
2019-06-01T17:41:15.020Z,32.65
2019-06-01T17:43:45.825Z,33.64
2019-06-01T17:46:16.694Z,34.66
2019-06-01T17:48:47.765Z,32.81
2019-06-01T17:51:18.565Z,33.67
2019-06-01T17:53:53.111Z,34.46
2019-06-01T17:56:21.708Z,36.56
2019-06-01T17:58:52.581Z,38.50
2019-06-01T18:01:23.379Z,39.32
2019-06-01T18:03:54.249Z,40.31
2019-06-01T18:06:25.023Z,41.13
2019-06-01T18:08:55.924Z,41.70
2019-06-01T18:11:26.788Z,43.40
2019-06-01T18:13:57.558Z,44.57
2019-06-01T18:16:28.470Z,44.45
2019-06-01T18:18:59.437Z,45.13
2019-06-01T18:21:33.378Z,44.94
2019-06-01T18:24:05.155Z,45.13
2019-06-01T18:26:35.296Z,45.28
2019-06-01T18:29:06.571Z,46.17
2019-06-01T18:31:37.203Z,46.45
2019-06-01T18:34:07.906Z,46.24
2019-06-01T18:36:38.436Z,47.41
2019-06-01T18:39:09.679Z,47.70
2019-06-01T18:41:40.132Z,47.59
2019-06-01T18:44:11.813Z,47.14
2019-06-01T18:46:42.438Z,47.78
2019-06-01T18:49:16.248Z,48.48
2019-06-01T18:51:45.167Z,48.75
2019-06-01T18:54:15.969Z,49.32
2019-06-01T18:56:46.936Z,48.58
2019-06-01T18:59:18.053Z,49.29
2019-06-01T19:01:48.976Z,50.35
2019-06-01T19:04:19.986Z,51.47
2019-06-01T19:06:50.756Z,51.42
2019-06-01T19:09:21.563Z,51.95
2019-06-01T19:11:53.349Z,51.90
2019-06-01T19:14:24.623Z,51.83
2019-06-01T19:16:55.532Z,52.22
2019-06-01T19:19:26.445Z,52.00
2019-06-01T19:21:57.191Z,53.12
2019-06-01T19:24:28.076Z,53.09
2019-06-01T19:26:58.846Z,53.27
2019-06-01T19:29:29.716Z,53.12
2019-06-01T19:32:00.620Z,53.72
2019-06-01T19:34:31.515Z,54.22
2019-06-01T19:37:02.739Z,53.94
2019-06-01T19:39:33.877Z,54.83
2019-06-01T19:42:04.680Z,54.26
2019-06-01T19:44:36.698Z,53.88
2019-06-01T19:47:09.738Z,54.54
2019-06-01T19:49:43.887Z,55.45
2019-06-01T19:52:14.570Z,55.60
2019-06-01T19:54:45.306Z,55.60
2019-06-01T19:57:18.931Z,54.71
2019-06-01T19:59:47.976Z,54.45
2019-06-01T20:02:29.562Z,54.13
2019-06-01T20:04:50.699Z,54.48
2019-06-01T20:07:21.473Z,54.35
2019-06-01T20:09:52.004Z,54.22
2019-06-01T20:12:22.609Z,54.71
2019-06-01T20:14:53.077Z,54.58
2019-06-01T20:17:26.401Z,54.55
2019-06-01T20:19:56.121Z,55.04
2019-06-01T20:22:26.905Z,55.35
2019-06-01T20:24:58.583Z,55.50
2019-06-01T20:27:29.360Z,55.96
2019-06-01T20:29:59.921Z,56.20
2019-06-01T20:32:30.792Z,56.00
2019-06-01T20:35:01.567Z,58.22
2019-06-01T20:37:32.670Z,57.15
2019-06-01T20:40:03.612Z,58.73
2019-06-01T20:42:34.777Z,58.48
2019-06-01T20:45:07.465Z,58.77
2019-06-01T20:47:39.040Z,58.89
2019-06-01T20:50:10.565Z,58.90
2019-06-01T20:52:41.580Z,58.85
2019-06-01T20:55:12.901Z,59.47
2019-06-01T20:57:43.765Z,59.51
2019-06-01T21:00:15.967Z,59.91
2019-06-01T21:02:46.801Z,60.70
2019-06-01T21:05:17.959Z,60.82
2019-06-01T21:07:48.464Z,60.81
2019-06-01T21:10:20.490Z,60.78
2019-06-01T21:12:51.049Z,60.91
2019-06-01T21:15:21.566Z,60.75
2019-06-01T21:17:52.040Z,60.66
2019-06-01T21:20:28.577Z,60.80
2019-06-01T21:22:54.909Z,60.71
2019-06-01T21:25:25.504Z,61.00
2019-06-01T21:27:55.991Z,60.64
2019-06-01T21:30:26.460Z,61.50
2019-06-01T21:32:56.985Z,61.33
2019-06-01T21:35:28.631Z,61.98
2019-06-01T21:37:59.328Z,61.83
2019-06-01T21:40:30.092Z,62.79
2019-06-01T21:43:12.847Z,62.18
2019-06-01T21:45:33.200Z,62.65
2019-06-01T21:48:03.800Z,62.31
2019-06-01T21:50:34.679Z,62.31
2019-06-01T21:53:05.508Z,62.63
2019-06-01T21:55:36.612Z,62.96
2019-06-01T21:58:07.448Z,63.52
2019-06-01T22:00:38.844Z,64.36
2019-06-01T22:03:11.322Z,64.73
2019-06-01T22:05:42.085Z,65.27
2019-06-01T22:08:12.920Z,65.63
2019-06-01T22:10:43.831Z,65.12
2019-06-01T22:13:18.783Z,65.29
2019-06-01T22:15:47.213Z,64.98
2019-06-01T22:18:17.837Z,63.73
2019-06-01T22:20:48.883Z,62.84
2019-06-01T22:23:19.772Z,63.00
2019-06-01T22:25:50.577Z,64.29
2019-06-01T22:28:22.254Z,63.70
2019-06-01T22:30:53.275Z,63.41
2019-06-01T22:33:24.586Z,63.12
2019-06-01T22:35:55.473Z,62.90
2019-06-01T22:38:26.160Z,62.79
2019-06-01T22:40:57.663Z,62.92
2019-06-01T22:43:42.240Z,62.64
2019-06-01T22:46:00.468Z,62.68
2019-06-01T22:48:31.245Z,62.84
2019-06-01T22:51:02.014Z,62.83
2019-06-01T22:53:32.813Z,63.05
2019-06-01T22:56:03.799Z,62.76
2019-06-01T22:58:34.595Z,62.72
2019-06-01T23:01:05.512Z,62.76
2019-06-01T23:03:37.384Z,63.00
2019-06-01T23:06:08.417Z,62.73
2019-06-01T23:08:39.200Z,62.29
2019-06-01T23:11:10.097Z,62.35
2019-06-01T23:13:52.863Z,62.12
2019-06-01T23:16:13.386Z,62.04
2019-06-01T23:18:44.306Z,62.13
2019-06-01T23:21:14.990Z,62.07
2019-06-01T23:23:45.949Z,61.93
2019-06-01T23:26:16.893Z,61.94
2019-06-01T23:28:47.642Z,61.96
2019-06-01T23:31:18.463Z,62.36
2019-06-01T23:33:49.331Z,61.64
2019-06-01T23:36:20.105Z,61.46
2019-06-01T23:38:51.908Z,61.94
2019-06-01T23:41:22.477Z,61.65
2019-06-01T23:44:09.929Z,61.60
2019-06-01T23:46:25.174Z,61.48
2019-06-01T23:48:55.812Z,61.55
2019-06-01T23:51:27.357Z,60.37
2019-06-01T23:53:58.121Z,60.49
2019-06-01T23:56:29.687Z,60.70
2019-06-01T23:59:00.274Z,60.54
